This is the latest recevied weather packets stored in our database for station/object SP1BMW-13. If no packets are shown the sender has not sent any weather packets the latest 10 day(s).
| Time | Temp. | Humidity | Pressure | Rain* | Wind** | Luminosity | Snow |
|---|---|---|---|---|---|---|---|
| 1787817137 | 21.67° C | 58% | 1020.7 hPa | 0 mm | 0 m/s | 344 W/m² | - |
| 1787817076 | 21.67° C | 56% | 1020.7 hPa | 0 mm | 1.79 m/s, 45° | 343 W/m² | - |
| 1787817017 | 21.67° C | 58% | 1020.9 hPa | 0 mm | 0.89 m/s, 29° | 340 W/m² | - |
| 1787816957 | 21.67° C | 55% | 1020.6 hPa | 0 mm | 1.79 m/s, 29° | 338 W/m² | - |
| 1787816897 | 21.67° C | 57% | 1020.8 hPa | 0 mm | 0.45 m/s, 33° | 336 W/m² | - |
| 1787816836 | 21.67° C | 57% | 1020.8 hPa | 0 mm | 0.45 m/s, 143° | 334 W/m² | - |
| 1787816777 | 21.67° C | 57% | 1020.9 hPa | 0 mm | 0 m/s | 331 W/m² | - |
| 1787816716 | 21.67° C | 56% | 1020.7 hPa | 0 mm | 1.79 m/s, 112° | 329 W/m² | - |
| 1787816656 | 21.67° C | 58% | 1020.7 hPa | 0 mm | 0 m/s | 327 W/m² | - |
| 1787816596 | 21.67° C | 57% | 1020.6 hPa | 0 mm | 0.89 m/s, 36° | 325 W/m² | - |
| 1787816537 | 21.67° C | 56% | 1021.1 hPa | 0 mm | 0.89 m/s, 26° | 322 W/m² | - |
| 1787816476 | 21.67° C | 58% | 1020.8 hPa | 0 mm | 0.45 m/s, 29° | 318 W/m² | - |
| 1787816416 | 21.67° C | 57% | 1020.9 hPa | 0 mm | 0 m/s | 315 W/m² | - |
| 1787816356 | 21.11° C | 56% | 1020.8 hPa | 0 mm | 0.45 m/s, 125° | 315 W/m² | - |
| 1787816296 | 21.11° C | 59% | 1020.7 hPa | 0 mm | 0.45 m/s, 97° | 312 W/m² | - |
| 1787816236 | 21.11° C | 58% | 1020.8 hPa | 0 mm | 0.45 m/s, 48° | 310 W/m² | - |
| 1787816176 | 21.11° C | 58% | 1020.8 hPa | 0 mm | 0.45 m/s, 45° | 307 W/m² | - |
| 1787816116 | 21.11° C | 59% | 1020.5 hPa | 0 mm | 0 m/s | 305 W/m² | - |
| 1787816056 | 21.11° C | 59% | 1020.7 hPa | 0 mm | 0.45 m/s, 98° | 303 W/m² | - |
| 1787815996 | 20.56° C | 59% | 1020.7 hPa | 0 mm | 0.45 m/s, 35° | 301 W/m² | - |
| 1787815936 | 20.56° C | 61% | 1020.8 hPa | 0 mm | 0.45 m/s, 76° | 299 W/m² | - |
| 1787815876 | 20.56° C | 62% | 1020.9 hPa | 0 mm | 0.45 m/s, 22° | 297 W/m² | - |
| 1787815816 | 20.56° C | 62% | 1020.6 hPa | 0 mm | 0.45 m/s, 53° | 293 W/m² | - |
| 1787815756 | 20° C | 60% | 1020.8 hPa | 0 mm | 0.45 m/s, 65° | 292 W/m² | - |
| 1787815696 | 20° C | 60% | 1021 hPa | 0 mm | 1.79 m/s, 64° | 289 W/m² | - |
* Rain latest hour (hover to see other rain measurements)
** Current wind speed in m/s (hover to see current wind gust speed)